sensor_id;sensor_type;location;lat;lon;timestamp;pressure;altitude;pressure_sealevel;temperature;humidity
33859;BME280;20156;47.486;12.074;2023-03-01T00:01:13;95928.13;;;0.94;100.00
33859;BME280;20156;47.486;12.074;2023-03-01T00:03:39;95932.28;;;0.85;100.00
33859;BME280;20156;47.486;12.074;2023-03-01T00:06:05;95926.66;;;0.91;100.00
33859;BME280;20156;47.486;12.074;2023-03-01T00:08:32;95922.22;;;0.93;100.00
33859;BME280;20156;47.486;12.074;2023-03-01T00:11:08;95922.91;;;0.95;100.00
33859;BME280;20156;47.486;12.074;2023-03-01T00:13:34;95915.16;;;0.85;100.00
33859;BME280;20156;47.486;12.074;2023-03-01T00:16:10;95914.84;;;0.79;100.00
33859;BME280;20156;47.486;12.074;2023-03-01T00:18:36;95901.84;;;0.92;100.00
33859;BME280;20156;47.486;12.074;2023-03-01T00:21:01;95905.63;;;0.87;100.00
33859;BME280;20156;47.486;12.074;2023-03-01T00:23:27;95900.50;;;0.87;100.00
33859;BME280;20156;47.486;12.074;2023-03-01T00:25:53;95897.13;;;0.87;100.00
33859;BME280;20156;47.486;12.074;2023-03-01T00:28:19;95893.81;;;0.75;100.00
33859;BME280;20156;47.486;12.074;2023-03-01T00:30:46;95901.75;;;0.72;100.00
33859;BME280;20156;47.486;12.074;2023-03-01T00:33:11;95889.38;;;0.77;100.00
33859;BME280;20156;47.486;12.074;2023-03-01T00:35:37;95881.13;;;0.74;100.00
33859;BME280;20156;47.486;12.074;2023-03-01T00:38:03;95880.00;;;0.87;100.00
33859;BME280;20156;47.486;12.074;2023-03-01T00:40:30;95875.84;;;0.96;100.00
33859;BME280;20156;47.486;12.074;2023-03-01T00:42:55;95868.44;;;0.93;100.00
33859;BME280;20156;47.486;12.074;2023-03-01T00:45:21;95852.13;;;0.94;100.00
33859;BME280;20156;47.486;12.074;2023-03-01T00:47:48;95831.38;;;0.97;100.00
33859;BME280;20156;47.486;12.074;2023-03-01T00:50:14;95827.72;;;0.90;100.00
33859;BME280;20156;47.486;12.074;2023-03-01T00:52:39;95826.13;;;0.99;100.00
33859;BME280;20156;47.486;12.074;2023-03-01T00:55:05;95825.84;;;0.92;100.00
33859;BME280;20156;47.486;12.074;2023-03-01T00:57:31;95830.97;;;0.92;100.00
33859;BME280;20156;47.486;12.074;2023-03-01T00:59:57;95837.72;;;0.93;100.00
33859;BME280;20156;47.486;12.074;2023-03-01T01:02:23;95837.41;;;0.86;100.00
33859;BME280;20156;47.486;12.074;2023-03-01T01:04:48;95828.13;;;0.85;100.00
33859;BME280;20156;47.486;12.074;2023-03-01T01:07:14;95818.91;;;0.83;100.00
33859;BME280;20156;47.486;12.074;2023-03-01T01:09:40;95818.69;;;0.86;100.00
33859;BME280;20156;47.486;12.074;2023-03-01T01:12:06;95818.50;;;0.78;100.00
33859;BME280;20156;47.486;12.074;2023-03-01T01:14:32;95808.13;;;0.79;100.00
33859;BME280;20156;47.486;12.074;2023-03-01T01:16:57;95798.69;;;0.80;100.00
33859;BME280;20156;47.486;12.074;2023-03-01T01:19:23;95789.72;;;0.85;100.00
33859;BME280;20156;47.486;12.074;2023-03-01T01:21:49;95780.41;;;0.84;100.00
33859;BME280;20156;47.486;12.074;2023-03-01T01:24:16;95778.41;;;0.88;100.00
33859;BME280;20156;47.486;12.074;2023-03-01T01:26:42;95771.66;;;0.87;100.00
33859;BME280;20156;47.486;12.074;2023-03-01T01:29:09;95763.72;;;0.90;100.00
33859;BME280;20156;47.486;12.074;2023-03-01T01:31:36;95755.84;;;0.82;100.00
33859;BME280;20156;47.486;12.074;2023-03-01T01:34:04;95749.25;;;0.79;100.00
33859;BME280;20156;47.486;12.074;2023-03-01T01:36:30;95749.25;;;0.79;100.00
33859;BME280;20156;47.486;12.074;2023-03-01T01:38:56;95762.31;;;0.76;100.00
33859;BME280;20156;47.486;12.074;2023-03-01T01:41:23;95767.69;;;0.73;100.00
33859;BME280;20156;47.486;12.074;2023-03-01T01:44:10;95777.63;;;0.67;100.00
33859;BME280;20156;47.486;12.074;2023-03-01T01:46:58;95772.00;;;0.73;100.00
33859;BME280;20156;47.486;12.074;2023-03-01T01:49:47;95762.06;;;0.79;100.00
33859;BME280;20156;47.486;12.074;2023-03-01T01:52:18;95756.66;;;0.73;100.00
33859;BME280;20156;47.486;12.074;2023-03-01T01:55:07;95754.59;;;0.67;100.00
33859;BME280;20156;47.486;12.074;2023-03-01T01:57:43;95744.66;;;0.73;100.00
33859;BME280;20156;47.486;12.074;2023-03-01T02:00:21;95737.66;;;0.75;100.00
33859;BME280;20156;47.486;12.074;2023-03-01T02:02:49;95725.25;;;0.80;100.00
33859;BME280;20156;47.486;12.074;2023-03-01T02:08:11;95713.72;;;0.86;100.00
33859;BME280;20156;47.486;12.074;2023-03-01T02:10:38;95697.28;;;0.88;100.00
33859;BME280;20156;47.486;12.074;2023-03-01T02:13:03;95693.91;;;0.88;100.00
33859;BME280;20156;47.486;12.074;2023-03-01T02:15:37;95686.38;;;0.86;100.00
33859;BME280;20156;47.486;12.074;2023-03-01T02:18:04;95692.28;;;0.87;100.00
33859;BME280;20156;47.486;12.074;2023-03-01T02:20:52;95695.66;;;0.87;100.00
33859;BME280;20156;47.486;12.074;2023-03-01T02:23:22;95702.50;;;0.77;100.00
33859;BME280;20156;47.486;12.074;2023-03-01T02:28:38;95707.88;;;0.84;100.00
33859;BME280;20156;47.486;12.074;2023-03-01T02:31:06;95717.22;;;0.85;100.00
33859;BME280;20156;47.486;12.074;2023-03-01T02:33:52;95682.28;;;0.84;100.00
33859;BME280;20156;47.486;12.074;2023-03-01T02:36:23;95651.03;;;0.80;100.00
33859;BME280;20156;47.486;12.074;2023-03-01T02:38:51;95644.59;;;0.86;100.00
33859;BME280;20156;47.486;12.074;2023-03-01T02:41:19;95641.75;;;0.89;100.00
33859;BME280;20156;47.486;12.074;2023-03-01T02:43:46;95633.41;;;0.87;100.00
33859;BME280;20156;47.486;12.074;2023-03-01T02:46:17;95635.28;;;0.85;100.00
33859;BME280;20156;47.486;12.074;2023-03-01T02:48:46;95641.88;;;0.78;100.00
33859;BME280;20156;47.486;12.074;2023-03-01T02:56:21;95632.59;;;0.86;100.00
33859;BME280;20156;47.486;12.074;2023-03-01T02:58:47;95629.47;;;0.83;100.00
33859;BME280;20156;47.486;12.074;2023-03-01T03:01:17;95635.25;;;0.75;100.00
33859;BME280;20156;47.486;12.074;2023-03-01T03:03:42;95628.53;;;0.84;100.00
33859;BME280;20156;47.486;12.074;2023-03-01T03:06:08;95635.97;;;0.87;100.00
33859;BME280;20156;47.486;12.074;2023-03-01T03:08:34;95640.28;;;0.86;100.00
33859;BME280;20156;47.486;12.074;2023-03-01T03:11:00;95635.69;;;0.90;100.00
33859;BME280;20156;47.486;12.074;2023-03-01T03:13:25;95641.63;;;0.90;100.00
33859;BME280;20156;47.486;12.074;2023-03-01T03:15:54;95636.91;;;0.86;100.00
33859;BME280;20156;47.486;12.074;2023-03-01T03:18:20;95629.38;;;0.84;100.00
33859;BME280;20156;47.486;12.074;2023-03-01T03:20:46;95624.25;;;0.84;100.00
33859;BME280;20156;47.486;12.074;2023-03-01T03:23:12;95607.50;;;0.80;100.00
33859;BME280;20156;47.486;12.074;2023-03-01T03:25:38;95596.47;;;0.80;100.00
33859;BME280;20156;47.486;12.074;2023-03-01T03:28:05;95589.22;;;0.85;100.00
33859;BME280;20156;47.486;12.074;2023-03-01T03:30:37;95581.22;;;0.78;100.00
33859;BME280;20156;47.486;12.074;2023-03-01T03:33:04;95565.59;;;0.81;100.00
33859;BME280;20156;47.486;12.074;2023-03-01T03:35:40;95492.97;;;0.82;100.00
33859;BME280;20156;47.486;12.074;2023-03-01T03:38:07;95500.00;;;0.80;100.00
33859;BME280;20156;47.486;12.074;2023-03-01T03:40:42;95489.38;;;0.85;100.00
33859;BME280;20156;47.486;12.074;2023-03-01T03:43:11;95561.97;;;0.94;100.00
33859;BME280;20156;47.486;12.074;2023-03-01T03:45:38;95558.88;;;0.90;100.00
33859;BME280;20156;47.486;12.074;2023-03-01T03:48:05;95567.50;;;0.89;100.00
33859;BME280;20156;47.486;12.074;2023-03-01T03:50:31;95577.75;;;0.89;100.00
33859;BME280;20156;47.486;12.074;2023-03-01T03:52:59;95576.13;;;0.88;100.00
33859;BME280;20156;47.486;12.074;2023-03-01T03:55:25;95576.41;;;0.85;100.00
33859;BME280;20156;47.486;12.074;2023-03-01T03:57:57;95561.84;;;0.76;100.00
33859;BME280;20156;47.486;12.074;2023-03-01T04:00:23;95557.66;;;0.75;100.00
33859;BME280;20156;47.486;12.074;2023-03-01T04:02:50;95547.69;;;0.72;100.00
33859;BME280;20156;47.486;12.074;2023-03-01T04:05:17;95523.44;;;0.76;100.00
33859;BME280;20156;47.486;12.074;2023-03-01T04:07:44;95475.63;;;0.76;100.00
33859;BME280;20156;47.486;12.074;2023-03-01T04:10:13;95473.47;;;0.72;100.00
33859;BME280;20156;47.486;12.074;2023-03-01T04:12:39;95460.41;;;0.75;100.00
33859;BME280;20156;47.486;12.074;2023-03-01T04:15:06;95469.44;;;0.69;100.00
33859;BME280;20156;47.486;12.074;2023-03-01T04:17:46;95485.59;;;0.60;100.00
33859;BME280;20156;47.486;12.074;2023-03-01T04:20:17;95497.84;;;0.66;100.00
33859;BME280;20156;47.486;12.074;2023-03-01T04:22:43;95501.47;;;0.64;100.00
33859;BME280;20156;47.486;12.074;2023-03-01T04:25:12;95510.13;;;0.53;100.00
33859;BME280;20156;47.486;12.074;2023-03-01T04:27:39;95515.09;;;0.54;100.00
33859;BME280;20156;47.486;12.074;2023-03-01T04:30:06;95500.56;;;0.55;100.00
33859;BME280;20156;47.486;12.074;2023-03-01T04:32:32;95500.00;;;0.61;100.00
33859;BME280;20156;47.486;12.074;2023-03-01T04:34:57;95500.69;;;0.63;100.00
33859;BME280;20156;47.486;12.074;2023-03-01T04:37:23;95492.63;;;0.68;100.00
33859;BME280;20156;47.486;12.074;2023-03-01T04:39:49;95494.22;;;0.69;100.00
33859;BME280;20156;47.486;12.074;2023-03-01T04:42:15;95486.53;;;0.69;100.00
33859;BME280;20156;47.486;12.074;2023-03-01T04:44:42;95477.91;;;0.70;100.00
33859;BME280;20156;47.486;12.074;2023-03-01T04:47:07;95472.25;;;0.66;100.00
33859;BME280;20156;47.486;12.074;2023-03-01T04:49:33;95480.63;;;0.58;100.00
33859;BME280;20156;47.486;12.074;2023-03-01T04:51:58;95486.94;;;0.64;100.00
33859;BME280;20156;47.486;12.074;2023-03-01T04:54:31;95485.31;;;0.63;100.00
33859;BME280;20156;47.486;12.074;2023-03-01T04:56:57;95474.94;;;0.65;100.00
33859;BME280;20156;47.486;12.074;2023-03-01T04:59:23;95472.38;;;0.65;100.00
33859;BME280;20156;47.486;12.074;2023-03-01T05:01:50;95471.84;;;0.61;100.00
33859;BME280;20156;47.486;12.074;2023-03-01T05:04:15;95472.00;;;0.69;100.00
33859;BME280;20156;47.486;12.074;2023-03-01T05:06:40;95477.25;;;0.58;100.00
33859;BME280;20156;47.486;12.074;2023-03-01T05:09:06;95483.56;;;0.44;100.00
33859;BME280;20156;47.486;12.074;2023-03-01T05:11:31;95470.63;;;0.46;100.00
33859;BME280;20156;47.486;12.074;2023-03-01T05:14:01;95460.44;;;0.36;100.00
33859;BME280;20156;47.486;12.074;2023-03-01T05:16:27;95441.03;;;0.24;100.00
33859;BME280;20156;47.486;12.074;2023-03-01T05:18:52;95431.06;;;0.21;100.00
33859;BME280;20156;47.486;12.074;2023-03-01T05:21:18;95408.59;;;0.24;100.00
33859;BME280;20156;47.486;12.074;2023-03-01T05:23:44;95383.41;;;0.29;100.00
33859;BME280;20156;47.486;12.074;2023-03-01T05:26:10;95369.16;;;0.37;100.00
33859;BME280;20156;47.486;12.074;2023-03-01T05:28:37;95371.84;;;0.35;100.00
33859;BME280;20156;47.486;12.074;2023-03-01T05:31:03;95365.63;;;0.38;100.00
33859;BME280;20156;47.486;12.074;2023-03-01T05:33:38;95365.75;;;0.46;100.00
33859;BME280;20156;47.486;12.074;2023-03-01T05:36:05;95367.06;;;0.50;100.00
33859;BME280;20156;47.486;12.074;2023-03-01T05:38:32;95360.91;;;0.52;100.00
33859;BME280;20156;47.486;12.074;2023-03-01T05:40:58;95365.47;;;0.58;100.00
33859;BME280;20156;47.486;12.074;2023-03-01T05:43:23;95357.88;;;0.67;100.00
33859;BME280;20156;47.486;12.074;2023-03-01T05:45:49;95367.19;;;0.68;100.00
33859;BME280;20156;47.486;12.074;2023-03-01T05:48:14;95358.84;;;0.66;100.00
33859;BME280;20156;47.486;12.074;2023-03-01T05:50:42;95346.31;;;0.63;100.00
33859;BME280;20156;47.486;12.074;2023-03-01T05:53:18;95348.75;;;0.64;100.00
33859;BME280;20156;47.486;12.074;2023-03-01T05:55:47;95341.72;;;0.66;100.00
33859;BME280;20156;47.486;12.074;2023-03-01T05:58:17;95343.47;;;0.66;100.00
33859;BME280;20156;47.486;12.074;2023-03-01T06:00:45;95350.50;;;0.64;100.00
33859;BME280;20156;47.486;12.074;2023-03-01T06:03:12;95354.53;;;0.66;100.00
33859;BME280;20156;47.486;12.074;2023-03-01T06:05:38;95349.28;;;0.68;100.00
33859;BME280;20156;47.486;12.074;2023-03-01T06:08:05;95351.84;;;0.68;100.00
33859;BME280;20156;47.486;12.074;2023-03-01T06:10:30;95363.00;;;0.67;100.00
33859;BME280;20156;47.486;12.074;2023-03-01T06:12:56;95355.44;;;0.75;100.00
33859;BME280;20156;47.486;12.074;2023-03-01T06:15:22;95372.00;;;0.80;100.00
33859;BME280;20156;47.486;12.074;2023-03-01T06:17:48;95388.31;;;0.79;100.00
33859;BME280;20156;47.486;12.074;2023-03-01T06:20:19;95407.72;;;0.72;100.00
33859;BME280;20156;47.486;12.074;2023-03-01T06:22:45;95414.47;;;0.73;100.00
33859;BME280;20156;47.486;12.074;2023-03-01T06:25:13;95416.06;;;0.74;100.00
33859;BME280;20156;47.486;12.074;2023-03-01T06:27:39;95413.50;;;0.74;100.00
33859;BME280;20156;47.486;12.074;2023-03-01T06:30:05;95411.09;;;0.73;100.00
33859;BME280;20156;47.486;12.074;2023-03-01T06:32:32;95400.06;;;0.72;100.00
33859;BME280;20156;47.486;12.074;2023-03-01T06:34:57;95400.72;;;0.74;100.00
33859;BME280;20156;47.486;12.074;2023-03-01T06:37:24;95420.81;;;0.59;100.00
33859;BME280;20156;47.486;12.074;2023-03-01T06:39:50;95429.03;;;0.53;100.00
33859;BME280;20156;47.486;12.074;2023-03-01T06:42:15;95426.97;;;0.67;100.00
33859;BME280;20156;47.486;12.074;2023-03-01T06:44:40;95434.69;;;0.57;100.00
33859;BME280;20156;47.486;12.074;2023-03-01T06:47:06;95429.44;;;0.49;100.00
33859;BME280;20156;47.486;12.074;2023-03-01T06:49:31;95420.16;;;0.57;100.00
33859;BME280;20156;47.486;12.074;2023-03-01T06:51:57;95419.72;;;0.62;100.00
33859;BME280;20156;47.486;12.074;2023-03-01T06:54:22;95412.44;;;0.77;100.00
33859;BME280;20156;47.486;12.074;2023-03-01T06:56:49;95412.19;;;0.70;100.00
33859;BME280;20156;47.486;12.074;2023-03-01T06:59:15;95421.75;;;0.58;100.00
33859;BME280;20156;47.486;12.074;2023-03-01T07:01:41;95409.91;;;0.57;100.00
33859;BME280;20156;47.486;12.074;2023-03-01T07:04:06;95404.13;;;0.55;100.00
33859;BME280;20156;47.486;12.074;2023-03-01T07:06:32;95402.09;;;0.59;100.00
33859;BME280;20156;47.486;12.074;2023-03-01T07:08:57;95394.94;;;0.72;100.00
33859;BME280;20156;47.486;12.074;2023-03-01T07:11:23;95390.19;;;0.87;100.00
33859;BME280;20156;47.486;12.074;2023-03-01T07:13:48;95402.41;;;0.93;100.00
33859;BME280;20156;47.486;12.074;2023-03-01T07:16:14;95406.97;;;0.99;100.00
33859;BME280;20156;47.486;12.074;2023-03-01T07:18:40;95414.19;;;0.86;100.00
33859;BME280;20156;47.486;12.074;2023-03-01T07:21:07;95423.16;;;1.00;100.00
33859;BME280;20156;47.486;12.074;2023-03-01T07:23:33;95412.38;;;1.06;100.00
33859;BME280;20156;47.486;12.074;2023-03-01T07:25:59;95420.28;;;1.12;100.00
33859;BME280;20156;47.486;12.074;2023-03-01T07:28:26;95430.53;;;1.12;100.00
33859;BME280;20156;47.486;12.074;2023-03-01T07:30:51;95435.50;;;1.14;100.00
33859;BME280;20156;47.486;12.074;2023-03-01T07:33:17;95433.88;;;1.23;100.00
33859;BME280;20156;47.486;12.074;2023-03-01T07:35:43;95438.59;;;1.17;100.00
33859;BME280;20156;47.486;12.074;2023-03-01T07:38:08;95446.28;;;1.17;100.00
33859;BME280;20156;47.486;12.074;2023-03-01T07:40:34;95451.94;;;1.21;100.00
33859;BME280;20156;47.486;12.074;2023-03-01T07:43:00;95471.34;;;1.24;100.00
33859;BME280;20156;47.486;12.074;2023-03-01T07:45:27;95476.63;;;1.22;100.00
33859;BME280;20156;47.486;12.074;2023-03-01T07:47:52;95483.78;;;1.18;100.00
33859;BME280;20156;47.486;12.074;2023-03-01T07:50:18;95501.16;;;1.15;100.00
33859;BME280;20156;47.486;12.074;2023-03-01T07:52:47;95493.88;;;1.10;100.00
33859;BME280;20156;47.486;12.074;2023-03-01T07:55:14;95485.38;;;1.19;100.00
33859;BME280;20156;47.486;12.074;2023-03-01T07:57:40;95473.47;;;1.28;100.00
33859;BME280;20156;47.486;12.074;2023-03-01T08:00:06;95478.31;;;1.41;100.00
33859;BME280;20156;47.486;12.074;2023-03-01T08:02:32;95485.41;;;1.47;100.00
33859;BME280;20156;47.486;12.074;2023-03-01T08:04:58;95483.47;;;1.68;100.00
33859;BME280;20156;47.486;12.074;2023-03-01T08:07:23;95496.38;;;1.76;100.00
33859;BME280;20156;47.486;12.074;2023-03-01T08:09:48;95519.09;;;1.62;100.00
33859;BME280;20156;47.486;12.074;2023-03-01T08:12:14;95525.16;;;1.70;100.00
33859;BME280;20156;47.486;12.074;2023-03-01T08:14:41;95535.63;;;1.77;100.00
33859;BME280;20156;47.486;12.074;2023-03-01T08:17:06;95546.91;;;1.94;100.00
33859;BME280;20156;47.486;12.074;2023-03-01T08:19:32;95560.41;;;1.96;100.00
33859;BME280;20156;47.486;12.074;2023-03-01T08:21:59;95558.31;;;2.09;100.00
33859;BME280;20156;47.486;12.074;2023-03-01T08:24:25;95551.94;;;2.13;100.00
33859;BME280;20156;47.486;12.074;2023-03-01T08:26:51;95550.69;;;2.17;100.00
33859;BME280;20156;47.486;12.074;2023-03-01T08:29:16;95552.28;;;2.28;100.00
33859;BME280;20156;47.486;12.074;2023-03-01T08:31:41;95577.94;;;2.28;100.00
33859;BME280;20156;47.486;12.074;2023-03-01T08:34:10;95589.81;;;2.29;100.00
33859;BME280;20156;47.486;12.074;2023-03-01T08:36:38;95603.09;;;2.24;100.00
33859;BME280;20156;47.486;12.074;2023-03-01T08:39:05;95605.66;;;2.24;100.00
33859;BME280;20156;47.486;12.074;2023-03-01T08:41:31;95610.28;;;2.11;100.00
33859;BME280;20156;47.486;12.074;2023-03-01T08:43:57;95609.59;;;2.19;100.00
33859;BME280;20156;47.486;12.074;2023-03-01T08:46:30;95616.88;;;2.14;100.00
33859;BME280;20156;47.486;12.074;2023-03-01T08:48:57;95623.75;;;2.23;100.00
33859;BME280;20156;47.486;12.074;2023-03-01T08:51:24;95632.91;;;2.25;100.00
33859;BME280;20156;47.486;12.074;2023-03-01T08:53:49;95630.66;;;2.22;100.00
33859;BME280;20156;47.486;12.074;2023-03-01T08:56:16;95650.88;;;2.25;100.00
33859;BME280;20156;47.486;12.074;2023-03-01T08:58:44;95644.88;;;2.07;100.00
33859;BME280;20156;47.486;12.074;2023-03-01T09:01:11;95641.72;;;2.23;100.00
33859;BME280;20156;47.486;12.074;2023-03-01T09:03:37;95651.47;;;2.47;100.00
33859;BME280;20156;47.486;12.074;2023-03-01T09:06:04;95652.16;;;2.66;100.00
33859;BME280;20156;47.486;12.074;2023-03-01T09:08:31;95658.91;;;2.67;100.00
33859;BME280;20156;47.486;12.074;2023-03-01T09:10:56;95657.59;;;2.63;100.00
33859;BME280;20156;47.486;12.074;2023-03-01T09:13:22;95660.59;;;2.86;100.00
33859;BME280;20156;47.486;12.074;2023-03-01T09:15:50;95693.34;;;2.47;100.00
33859;BME280;20156;47.486;12.074;2023-03-01T09:18:15;95692.09;;;2.51;100.00
33859;BME280;20156;47.486;12.074;2023-03-01T09:20:41;95688.78;;;2.68;100.00
33859;BME280;20156;47.486;12.074;2023-03-01T09:23:06;95693.81;;;2.70;100.00
33859;BME280;20156;47.486;12.074;2023-03-01T09:25:34;95701.59;;;2.78;100.00
33859;BME280;20156;47.486;12.074;2023-03-01T09:27:59;95724.47;;;2.71;100.00
33859;BME280;20156;47.486;12.074;2023-03-01T09:30:25;95736.44;;;2.81;100.00
33859;BME280;20156;47.486;12.074;2023-03-01T09:32:50;95738.84;;;3.19;100.00
33859;BME280;20156;47.486;12.074;2023-03-01T09:35:15;95763.94;;;3.25;100.00
33859;BME280;20156;47.486;12.074;2023-03-01T09:37:41;95773.50;;;3.33;100.00
33859;BME280;20156;47.486;12.074;2023-03-01T09:40:15;95781.81;;;3.45;100.00
33859;BME280;20156;47.486;12.074;2023-03-01T09:43:41;95796.06;;;3.39;100.00
33859;BME280;20156;47.486;12.074;2023-03-01T09:45:55;95797.19;;;3.09;100.00
33859;BME280;20156;47.486;12.074;2023-03-01T09:48:29;95802.31;;;3.09;100.00
33859;BME280;20156;47.486;12.074;2023-03-01T09:50:57;95810.03;;;3.09;100.00
33859;BME280;20156;47.486;12.074;2023-03-01T09:53:31;95808.50;;;3.16;100.00
33859;BME280;20156;47.486;12.074;2023-03-01T09:56:11;95805.25;;;3.14;100.00
33859;BME280;20156;47.486;12.074;2023-03-01T10:01:34;95802.75;;;3.50;100.00
33859;BME280;20156;47.486;12.074;2023-03-01T10:09:38;95801.75;;;2.88;100.00
33859;BME280;20156;47.486;12.074;2023-03-01T10:12:09;95791.88;;;2.83;100.00
33859;BME280;20156;47.486;12.074;2023-03-01T10:14:44;95782.78;;;3.44;100.00
33859;BME280;20156;47.486;12.074;2023-03-01T10:17:34;95774.75;;;3.29;100.00
33859;BME280;20156;47.486;12.074;2023-03-01T10:22:43;95769.69;;;2.82;100.00
33859;BME280;20156;47.486;12.074;2023-03-01T10:25:17;95763.44;;;3.22;100.00
33859;BME280;20156;47.486;12.074;2023-03-01T10:27:54;95769.72;;;3.90;100.00
33859;BME280;20156;47.486;12.074;2023-03-01T10:30:38;95767.09;;;4.78;100.00
33859;BME280;20156;47.486;12.074;2023-03-01T10:33:15;95769.44;;;4.97;100.00
33859;BME280;20156;47.486;12.074;2023-03-01T10:35:42;95770.47;;;4.78;100.00
33859;BME280;20156;47.486;12.074;2023-03-01T10:38:12;95766.00;;;4.55;100.00
33859;BME280;20156;47.486;12.074;2023-03-01T10:46:34;95758.94;;;5.33;100.00
33859;BME280;20156;47.486;12.074;2023-03-01T10:49:19;95736.50;;;5.25;100.00
33859;BME280;20156;47.486;12.074;2023-03-01T10:51:50;95735.75;;;4.91;100.00
33859;BME280;20156;47.486;12.074;2023-03-01T10:54:20;95728.25;;;5.13;100.00
33859;BME280;20156;47.486;12.074;2023-03-01T10:56:51;95720.88;;;5.35;100.00
33859;BME280;20156;47.486;12.074;2023-03-01T10:59:33;95716.25;;;5.63;100.00
33859;BME280;20156;47.486;12.074;2023-03-01T11:05:13;95707.56;;;6.04;100.00
33859;BME280;20156;47.486;12.074;2023-03-01T11:08:07;95698.34;;;5.53;100.00
33859;BME280;20156;47.486;12.074;2023-03-01T11:10:34;95702.75;;;6.10;100.00
33859;BME280;20156;47.486;12.074;2023-03-01T11:13:19;95692.41;;;6.18;100.00
33859;BME280;20156;47.486;12.074;2023-03-01T11:16:05;95679.34;;;6.11;100.00
33859;BME280;20156;47.486;12.074;2023-03-01T11:18:31;95678.63;;;6.42;100.00
33859;BME280;20156;47.486;12.074;2023-03-01T11:20:59;95667.22;;;6.12;100.00
33859;BME280;20156;47.486;12.074;2023-03-01T11:23:27;95665.00;;;6.09;100.00
33859;BME280;20156;47.486;12.074;2023-03-01T11:26:07;95665.81;;;5.93;100.00
33859;BME280;20156;47.486;12.074;2023-03-01T11:28:37;95667.50;;;6.33;100.00
33859;BME280;20156;47.486;12.074;2023-03-01T11:31:07;95662.88;;;6.68;100.00
33859;BME280;20156;47.486;12.074;2023-03-01T11:34:11;95656.81;;;6.91;100.00
33859;BME280;20156;47.486;12.074;2023-03-01T11:36:49;95644.25;;;7.11;100.00
33859;BME280;20156;47.486;12.074;2023-03-01T11:39:27;95629.56;;;7.04;100.00
33859;BME280;20156;47.486;12.074;2023-03-01T11:42:02;95644.69;;;7.23;100.00
33859;BME280;20156;47.486;12.074;2023-03-01T11:44:33;95624.63;;;6.94;100.00
33859;BME280;20156;47.486;12.074;2023-03-01T12:06:50;95618.41;;;6.41;100.00
33859;BME280;20156;47.486;12.074;2023-03-01T12:12:25;95620.00;;;6.81;100.00
33859;BME280;20156;47.486;12.074;2023-03-01T12:18:01;95620.19;;;6.32;100.00
33859;BME280;20156;47.486;12.074;2023-03-01T12:20:45;95619.34;;;5.52;100.00
33859;BME280;20156;47.486;12.074;2023-03-01T12:29:48;95619.19;;;5.46;100.00
33859;BME280;20156;47.486;12.074;2023-03-01T12:40:33;95617.72;;;5.67;100.00
33859;BME280;20156;47.486;12.074;2023-03-01T12:51:35;95610.13;;;5.66;100.00
33859;BME280;20156;47.486;12.074;2023-03-01T12:54:11;95615.50;;;6.36;100.00
33859;BME280;20156;47.486;12.074;2023-03-01T12:56:39;95608.91;;;6.73;100.00
33859;BME280;20156;47.486;12.074;2023-03-01T12:59:27;95595.22;;;6.25;100.00
33859;BME280;20156;47.486;12.074;2023-03-01T13:02:04;95598.22;;;6.76;100.00
33859;BME280;20156;47.486;12.074;2023-03-01T13:04:59;95588.34;;;6.48;100.00
33859;BME280;20156;47.486;12.074;2023-03-01T13:07:30;95582.53;;;5.83;100.00
33859;BME280;20156;47.486;12.074;2023-03-01T13:12:51;95587.19;;;6.12;100.00
33859;BME280;20156;47.486;12.074;2023-03-01T13:20:24;95560.88;;;6.78;100.00
33859;BME280;20156;47.486;12.074;2023-03-01T13:25:26;95547.41;;;6.60;100.00
33859;BME280;20156;47.486;12.074;2023-03-01T13:31:09;95565.38;;;7.07;100.00
33859;BME280;20156;47.486;12.074;2023-03-01T13:33:47;95557.63;;;7.82;100.00
33859;BME280;20156;47.486;12.074;2023-03-01T13:47:36;95537.00;;;6.76;100.00
33859;BME280;20156;47.486;12.074;2023-03-01T13:50:03;95539.75;;;6.75;100.00
33859;BME280;20156;47.486;12.074;2023-03-01T13:55:01;95543.34;;;6.66;100.00
33859;BME280;20156;47.486;12.074;2023-03-01T13:57:37;95544.22;;;6.81;100.00
33859;BME280;20156;47.486;12.074;2023-03-01T14:00:06;95540.47;;;6.60;100.00
33859;BME280;20156;47.486;12.074;2023-03-01T14:02:32;95531.69;;;6.08;100.00
33859;BME280;20156;47.486;12.074;2023-03-01T14:05:00;95527.97;;;6.02;100.00
33859;BME280;20156;47.486;12.074;2023-03-01T14:07:27;95543.28;;;6.12;100.00
33859;BME280;20156;47.486;12.074;2023-03-01T14:10:02;95538.34;;;5.78;100.00
33859;BME280;20156;47.486;12.074;2023-03-01T14:17:55;95536.09;;;5.91;100.00
33859;BME280;20156;47.486;12.074;2023-03-01T14:20:32;95532.16;;;6.11;100.00
33859;BME280;20156;47.486;12.074;2023-03-01T14:23:10;95518.25;;;6.12;100.00
33859;BME280;20156;47.486;12.074;2023-03-01T14:25:37;95536.97;;;6.14;100.00
33859;BME280;20156;47.486;12.074;2023-03-01T14:28:14;95529.06;;;6.16;100.00
33859;BME280;20156;47.486;12.074;2023-03-01T14:30:43;95526.47;;;6.16;100.00
33859;BME280;20156;47.486;12.074;2023-03-01T14:35:52;95532.31;;;6.10;100.00
33859;BME280;20156;47.486;12.074;2023-03-01T14:38:45;95525.38;;;6.02;100.00
33859;BME280;20156;47.486;12.074;2023-03-01T14:41:14;95528.59;;;6.12;100.00
33859;BME280;20156;47.486;12.074;2023-03-01T14:46:41;95526.50;;;6.47;100.00
33859;BME280;20156;47.486;12.074;2023-03-01T14:49:15;95514.97;;;6.26;100.00
33859;BME280;20156;47.486;12.074;2023-03-01T14:51:46;95524.44;;;6.34;100.00
33859;BME280;20156;47.486;12.074;2023-03-01T14:54:23;95528.44;;;6.45;100.00
33859;BME280;20156;47.486;12.074;2023-03-01T14:56:52;95527.38;;;6.62;100.00
33859;BME280;20156;47.486;12.074;2023-03-01T14:59:21;95520.31;;;6.25;100.00